Hunters Hill, Australia
Current Conditions -  °F | °C
As of 7:00 AM on Thursday 27 Nov 2014 (Local Time) from YMAY Reporting Station
Clear Clear  
Wind Chill: 61°   Ceiling: Unl
Heat Index: 61°   Visibility: 6mi
Dew Point: 50°   Wind: 3mph
Humidity: 68%   Direction: 170°S
Pressure: 30.12"   Gusts: NA
Location:  36.22°S, 147.53°E
Report Text: YMAY 262000Z AUTO 17003KT 9999 // NCD 16/10 Q1020
Loading
Personal Weather Stations






























Interactive Weather Map New forecast layout! Learn more

10-Day Weather Forecast

Advertisements
Track Severe Weather on mobile